sensor_id;sensor_type;location;lat;lon;timestamp;pressure;altitude;pressure_sealevel;temperature;humidity
49342;BME280;35210;41.606;-87.602;2024-03-02T00:02:03;99758.75;;;9.48;44.90
49342;BME280;35210;41.606;-87.602;2024-03-02T00:04:32;99752.22;;;9.41;45.37
49342;BME280;35210;41.606;-87.602;2024-03-02T00:07:02;99754.94;;;9.39;45.06
49342;BME280;35210;41.606;-87.602;2024-03-02T00:09:30;99747.88;;;9.40;45.54
49342;BME280;35210;41.606;-87.602;2024-03-02T00:11:59;99747.56;;;9.44;46.90
49342;BME280;35210;41.606;-87.602;2024-03-02T00:14:29;99746.19;;;9.39;46.64
49342;BME280;35210;41.606;-87.602;2024-03-02T00:16:57;99750.91;;;9.21;46.68
49342;BME280;35210;41.606;-87.602;2024-03-02T00:19:26;99746.91;;;9.28;47.89
49342;BME280;35210;41.606;-87.602;2024-03-02T00:21:55;99739.50;;;9.20;47.66
49342;BME280;35210;41.606;-87.602;2024-03-02T00:24:31;99742.69;;;9.26;46.85
49342;BME280;35210;41.606;-87.602;2024-03-02T00:26:59;99746.47;;;9.21;48.21
49342;BME280;35210;41.606;-87.602;2024-03-02T00:29:28;99737.72;;;9.21;48.67
49342;BME280;35210;41.606;-87.602;2024-03-02T00:31:57;99735.72;;;9.25;49.24
49342;BME280;35210;41.606;-87.602;2024-03-02T00:34:26;99743.00;;;9.21;49.47
49342;BME280;35210;41.606;-87.602;2024-03-02T00:36:54;99750.44;;;9.14;50.82
49342;BME280;35210;41.606;-87.602;2024-03-02T00:39:27;99750.00;;;9.08;51.52
49342;BME280;35210;41.606;-87.602;2024-03-02T00:41:55;99753.50;;;9.08;52.86
49342;BME280;35210;41.606;-87.602;2024-03-02T00:44:25;99759.31;;;9.13;53.21
49342;BME280;35210;41.606;-87.602;2024-03-02T00:46:58;99762.88;;;9.12;52.81
49342;BME280;35210;41.606;-87.602;2024-03-02T00:49:27;99764.44;;;9.02;54.36
49342;BME280;35210;41.606;-87.602;2024-03-02T00:51:56;99761.34;;;8.96;56.59
49342;BME280;35210;41.606;-87.602;2024-03-02T00:54:27;99762.19;;;8.96;57.03
49342;BME280;35210;41.606;-87.602;2024-03-02T00:56:56;99760.94;;;8.89;57.27
49342;BME280;35210;41.606;-87.602;2024-03-02T00:59:25;99748.66;;;8.75;58.21
49342;BME280;35210;41.606;-87.602;2024-03-02T01:01:53;99747.06;;;8.73;58.72
49342;BME280;35210;41.606;-87.602;2024-03-02T01:04:21;99738.16;;;8.61;58.51
49342;BME280;35210;41.606;-87.602;2024-03-02T01:06:49;99737.22;;;8.62;58.66
49342;BME280;35210;41.606;-87.602;2024-03-02T01:09:20;99743.88;;;8.68;58.81
49342;BME280;35210;41.606;-87.602;2024-03-02T01:11:50;99739.25;;;8.71;57.60
49342;BME280;35210;41.606;-87.602;2024-03-02T01:14:18;99736.84;;;8.68;58.16
49342;BME280;35210;41.606;-87.602;2024-03-02T01:16:46;99734.09;;;8.70;57.73
49342;BME280;35210;41.606;-87.602;2024-03-02T01:19:15;99737.13;;;8.64;57.41
49342;BME280;35210;41.606;-87.602;2024-03-02T01:21:43;99726.94;;;8.72;57.38
49342;BME280;35210;41.606;-87.602;2024-03-02T01:24:12;99725.56;;;8.66;57.42
49342;BME280;35210;41.606;-87.602;2024-03-02T01:26:40;99723.06;;;8.77;56.16
49342;BME280;35210;41.606;-87.602;2024-03-02T01:29:10;99722.97;;;8.79;56.33
49342;BME280;35210;41.606;-87.602;2024-03-02T01:31:39;99722.13;;;8.78;56.41
49342;BME280;35210;41.606;-87.602;2024-03-02T01:34:11;99720.88;;;8.84;56.76
49342;BME280;35210;41.606;-87.602;2024-03-02T01:36:39;99717.09;;;8.88;55.89
49342;BME280;35210;41.606;-87.602;2024-03-02T01:39:07;99708.78;;;8.94;54.96
49342;BME280;35210;41.606;-87.602;2024-03-02T01:41:36;99716.69;;;8.94;55.45
49342;BME280;35210;41.606;-87.602;2024-03-02T01:44:05;99711.41;;;8.94;55.53
49342;BME280;35210;41.606;-87.602;2024-03-02T01:46:34;99708.78;;;8.94;54.96
49342;BME280;35210;41.606;-87.602;2024-03-02T01:49:03;99715.84;;;8.94;54.74
49342;BME280;35210;41.606;-87.602;2024-03-02T01:51:31;99716.91;;;8.91;55.59
49342;BME280;35210;41.606;-87.602;2024-03-02T01:54:00;99715.94;;;8.92;55.45
49342;BME280;35210;41.606;-87.602;2024-03-02T01:56:28;99709.94;;;8.90;56.03
49342;BME280;35210;41.606;-87.602;2024-03-02T01:58:56;99708.03;;;8.92;55.28
49342;BME280;35210;41.606;-87.602;2024-03-02T02:01:24;99711.41;;;8.94;55.36
49342;BME280;35210;41.606;-87.602;2024-03-02T02:03:54;99708.38;;;9.00;54.98
49342;BME280;35210;41.606;-87.602;2024-03-02T02:06:23;99719.22;;;8.96;55.70
49342;BME280;35210;41.606;-87.602;2024-03-02T02:08:51;99721.94;;;8.94;55.22
49342;BME280;35210;41.606;-87.602;2024-03-02T02:11:20;99724.38;;;8.97;55.19
49342;BME280;35210;41.606;-87.602;2024-03-02T02:13:48;99726.25;;;8.95;55.33
49342;BME280;35210;41.606;-87.602;2024-03-02T02:16:16;99727.22;;;8.94;55.41
49342;BME280;35210;41.606;-87.602;2024-03-02T02:18:44;99724.28;;;8.99;55.91
49342;BME280;35210;41.606;-87.602;2024-03-02T02:21:14;99729.75;;;8.96;56.04
49342;BME280;35210;41.606;-87.602;2024-03-02T02:23:43;99726.75;;;8.75;56.24
49342;BME280;35210;41.606;-87.602;2024-03-02T02:26:14;99735.41;;;8.77;56.45
49342;BME280;35210;41.606;-87.602;2024-03-02T02:28:42;99728.44;;;8.76;55.96
49342;BME280;35210;41.606;-87.602;2024-03-02T02:31:14;99737.69;;;8.69;56.73
49342;BME280;35210;41.606;-87.602;2024-03-02T02:33:42;99742.94;;;8.69;55.92
49342;BME280;35210;41.606;-87.602;2024-03-02T02:36:10;99740.16;;;8.57;56.44
49342;BME280;35210;41.606;-87.602;2024-03-02T02:38:46;99747.84;;;8.61;56.24
49342;BME280;35210;41.606;-87.602;2024-03-02T02:41:17;99753.34;;;8.43;57.22
49342;BME280;35210;41.606;-87.602;2024-03-02T02:43:45;99750.50;;;8.32;57.07
49342;BME280;35210;41.606;-87.602;2024-03-02T02:46:16;99759.53;;;8.42;57.36
49342;BME280;35210;41.606;-87.602;2024-03-02T02:48:44;99750.06;;;8.40;57.17
49342;BME280;35210;41.606;-87.602;2024-03-02T02:51:12;99759.63;;;8.41;56.96
49342;BME280;35210;41.606;-87.602;2024-03-02T02:53:40;99762.16;;;8.42;57.22
49342;BME280;35210;41.606;-87.602;2024-03-02T02:56:10;99757.84;;;8.41;56.97
49342;BME280;35210;41.606;-87.602;2024-03-02T02:58:39;99762.38;;;8.39;57.17
49342;BME280;35210;41.606;-87.602;2024-03-02T03:01:07;99755.41;;;8.38;57.13
49342;BME280;35210;41.606;-87.602;2024-03-02T03:03:35;99766.28;;;8.32;57.55
49342;BME280;35210;41.606;-87.602;2024-03-02T03:06:04;99773.53;;;8.29;56.71
49342;BME280;35210;41.606;-87.602;2024-03-02T03:08:32;99779.38;;;8.34;57.05
49342;BME280;35210;41.606;-87.602;2024-03-02T03:11:00;99788.97;;;8.35;57.69
49342;BME280;35210;41.606;-87.602;2024-03-02T03:13:30;99785.09;;;8.40;57.81
49342;BME280;35210;41.606;-87.602;2024-03-02T03:15:58;99788.13;;;8.34;58.20
49342;BME280;35210;41.606;-87.602;2024-03-02T03:18:26;99788.97;;;8.35;57.83
49342;BME280;35210;41.606;-87.602;2024-03-02T03:20:54;99786.13;;;8.38;58.14
49342;BME280;35210;41.606;-87.602;2024-03-02T03:23:22;99788.94;;;8.49;57.82
49342;BME280;35210;41.606;-87.602;2024-03-02T03:25:51;99779.84;;;8.40;58.13
49342;BME280;35210;41.606;-87.602;2024-03-02T03:28:20;99790.94;;;8.45;57.90
49342;BME280;35210;41.606;-87.602;2024-03-02T03:30:49;99792.72;;;8.45;57.71
49342;BME280;35210;41.606;-87.602;2024-03-02T03:33:17;99795.25;;;8.46;57.88
49342;BME280;35210;41.606;-87.602;2024-03-02T03:35:45;99796.75;;;8.50;57.78
49342;BME280;35210;41.606;-87.602;2024-03-02T03:38:14;99794.22;;;8.49;57.83
49342;BME280;35210;41.606;-87.602;2024-03-02T03:40:42;99799.94;;;8.55;57.54
49342;BME280;35210;41.606;-87.602;2024-03-02T03:43:11;99797.97;;;8.45;57.63
49342;BME280;35210;41.606;-87.602;2024-03-02T03:45:39;99803.91;;;8.48;57.96
49342;BME280;35210;41.606;-87.602;2024-03-02T03:48:09;99804.75;;;8.49;57.81
49342;BME280;35210;41.606;-87.602;2024-03-02T03:50:37;99800.50;;;8.46;58.19
49342;BME280;35210;41.606;-87.602;2024-03-02T03:53:05;99808.03;;;8.38;58.21
49342;BME280;35210;41.606;-87.602;2024-03-02T03:55:33;99808.78;;;8.40;57.65
49342;BME280;35210;41.606;-87.602;2024-03-02T03:58:01;99800.69;;;8.43;58.14
49342;BME280;35210;41.606;-87.602;2024-03-02T04:00:29;99805.41;;;8.38;57.65
49342;BME280;35210;41.606;-87.602;2024-03-02T04:02:57;99807.63;;;8.30;57.92
49342;BME280;35210;41.606;-87.602;2024-03-02T04:05:26;99795.81;;;8.37;57.29
49342;BME280;35210;41.606;-87.602;2024-03-02T04:07:54;99790.19;;;8.43;56.79
49342;BME280;35210;41.606;-87.602;2024-03-02T04:10:24;99786.41;;;8.47;56.64
49342;BME280;35210;41.606;-87.602;2024-03-02T04:12:52;99776.28;;;8.41;57.07
49342;BME280;35210;41.606;-87.602;2024-03-02T04:15:20;99778.72;;;8.44;56.70
49342;BME280;35210;41.606;-87.602;2024-03-02T04:17:49;99776.47;;;8.38;56.94
49342;BME280;35210;41.606;-87.602;2024-03-02T04:20:17;99771.94;;;8.40;57.04
49342;BME280;35210;41.606;-87.602;2024-03-02T04:22:47;99768.75;;;8.35;56.93
49342;BME280;35210;41.606;-87.602;2024-03-02T04:25:15;99767.78;;;8.22;57.34
49342;BME280;35210;41.606;-87.602;2024-03-02T04:27:43;99763.09;;;8.27;57.03
49342;BME280;35210;41.606;-87.602;2024-03-02T04:30:13;99768.34;;;8.27;57.42
49342;BME280;35210;41.606;-87.602;2024-03-02T04:32:39;99766.66;;;8.26;57.63
49342;BME280;35210;41.606;-87.602;2024-03-02T04:35:12;99762.00;;;8.17;57.70
49342;BME280;35210;41.606;-87.602;2024-03-02T04:37:40;99767.41;;;8.28;57.63
49342;BME280;35210;41.606;-87.602;2024-03-02T04:40:11;99752.75;;;8.24;57.77
49342;BME280;35210;41.606;-87.602;2024-03-02T04:42:42;99753.59;;;8.24;57.40
49342;BME280;35210;41.606;-87.602;2024-03-02T04:45:11;99754.44;;;8.25;58.05
49342;BME280;35210;41.606;-87.602;2024-03-02T04:47:39;99755.94;;;8.29;57.88
49342;BME280;35210;41.606;-87.602;2024-03-02T04:50:08;99744.03;;;8.23;57.79
49342;BME280;35210;41.606;-87.602;2024-03-02T04:52:36;99745.81;;;8.23;57.69
49342;BME280;35210;41.606;-87.602;2024-03-02T04:55:05;99738.28;;;8.31;57.65
49342;BME280;35210;41.606;-87.602;2024-03-02T04:57:57;99735.31;;;8.37;57.31
49342;BME280;35210;41.606;-87.602;2024-03-02T05:00:25;99745.06;;;8.35;57.62
49342;BME280;35210;41.606;-87.602;2024-03-02T05:02:53;99753.72;;;8.37;57.19
49342;BME280;35210;41.606;-87.602;2024-03-02T05:05:21;99741.69;;;8.33;57.81
49342;BME280;35210;41.606;-87.602;2024-03-02T05:07:50;99737.28;;;8.34;57.50
49342;BME280;35210;41.606;-87.602;2024-03-02T05:10:18;99734.56;;;8.35;57.21
49342;BME280;35210;41.606;-87.602;2024-03-02T05:12:46;99731.34;;;8.30;57.72
49342;BME280;35210;41.606;-87.602;2024-03-02T05:15:25;99722.34;;;8.34;57.54
49342;BME280;35210;41.606;-87.602;2024-03-02T05:17:53;99720.25;;;8.25;57.99
49342;BME280;35210;41.606;-87.602;2024-03-02T05:20:23;99708.59;;;8.29;57.95
49342;BME280;35210;41.606;-87.602;2024-03-02T05:22:51;99715.75;;;8.27;57.97
49342;BME280;35210;41.606;-87.602;2024-03-02T05:25:20;99715.94;;;8.24;58.46
49342;BME280;35210;41.606;-87.602;2024-03-02T05:27:49;99712.75;;;8.19;58.17
49342;BME280;35210;41.606;-87.602;2024-03-02T05:30:17;99716.69;;;8.26;57.87
49342;BME280;35210;41.606;-87.602;2024-03-02T05:32:46;99717.25;;;8.31;57.99
49342;BME280;35210;41.606;-87.602;2024-03-02T05:35:14;99711.13;;;8.31;58.07
49342;BME280;35210;41.606;-87.602;2024-03-02T05:37:42;99714.34;;;8.36;57.87
49342;BME280;35210;41.606;-87.602;2024-03-02T05:40:11;99712.81;;;8.32;57.94
49342;BME280;35210;41.606;-87.602;2024-03-02T05:42:39;99725.91;;;8.33;58.32
49342;BME280;35210;41.606;-87.602;2024-03-02T05:45:08;99723.00;;;8.38;58.08
49342;BME280;35210;41.606;-87.602;2024-03-02T05:47:36;99726.47;;;8.38;58.03
49342;BME280;35210;41.606;-87.602;2024-03-02T05:50:06;99725.72;;;8.36;57.76
49342;BME280;35210;41.606;-87.602;2024-03-02T05:52:35;99725.06;;;8.33;57.85
49342;BME280;35210;41.606;-87.602;2024-03-02T05:55:03;99724.13;;;8.34;58.07
49342;BME280;35210;41.606;-87.602;2024-03-02T05:57:31;99731.81;;;8.37;58.26
49342;BME280;35210;41.606;-87.602;2024-03-02T06:00:14;99739.41;;;8.27;58.26
49342;BME280;35210;41.606;-87.602;2024-03-02T06:02:43;99736.34;;;8.35;58.85
49342;BME280;35210;41.606;-87.602;2024-03-02T06:05:13;99733.41;;;8.25;59.18
49342;BME280;35210;41.606;-87.602;2024-03-02T06:07:41;99737.72;;;8.26;59.42
49342;BME280;35210;41.606;-87.602;2024-03-02T06:10:09;99744.03;;;8.23;59.63
49342;BME280;35210;41.606;-87.602;2024-03-02T06:12:37;99748.25;;;8.26;59.28
49342;BME280;35210;41.606;-87.602;2024-03-02T06:15:06;99748.81;;;8.31;59.35
49342;BME280;35210;41.606;-87.602;2024-03-02T06:17:35;99751.84;;;8.39;58.42
49342;BME280;35210;41.606;-87.602;2024-03-02T06:20:04;99756.91;;;8.42;58.34
49342;BME280;35210;41.606;-87.602;2024-03-02T06:22:37;99749.75;;;8.44;58.63
49342;BME280;35210;41.606;-87.602;2024-03-02T06:25:05;99748.91;;;8.44;58.89
49342;BME280;35210;41.606;-87.602;2024-03-02T06:27:34;99747.31;;;8.41;58.28
49342;BME280;35210;41.606;-87.602;2024-03-02T06:30:02;99755.50;;;8.37;59.02
49342;BME280;35210;41.606;-87.602;2024-03-02T06:32:31;99757.53;;;8.32;59.35
49342;BME280;35210;41.606;-87.602;2024-03-02T06:34:59;99751.53;;;8.30;59.28
49342;BME280;35210;41.606;-87.602;2024-03-02T06:37:27;99758.69;;;8.28;59.32
49342;BME280;35210;41.606;-87.602;2024-03-02T06:39:57;99756.03;;;8.28;59.39
49342;BME280;35210;41.606;-87.602;2024-03-02T06:42:25;99763.75;;;8.31;59.13
49342;BME280;35210;41.606;-87.602;2024-03-02T06:44:53;99766.28;;;8.32;59.89
49342;BME280;35210;41.606;-87.602;2024-03-02T06:47:22;99776.25;;;8.27;59.69
49342;BME280;35210;41.606;-87.602;2024-03-02T06:49:50;99778.88;;;8.27;60.12
49342;BME280;35210;41.606;-87.602;2024-03-02T06:52:19;99776.34;;;8.25;60.54
49342;BME280;35210;41.606;-87.602;2024-03-02T06:54:49;99783.59;;;8.08;61.76
49342;BME280;35210;41.606;-87.602;2024-03-02T06:57:18;99783.03;;;8.03;61.82
49342;BME280;35210;41.606;-87.602;2024-03-02T06:59:47;99788.28;;;7.88;62.73
49342;BME280;35210;41.606;-87.602;2024-03-02T07:02:17;99787.91;;;7.95;62.74
49342;BME280;35210;41.606;-87.602;2024-03-02T07:04:45;99794.13;;;7.94;62.99
49342;BME280;35210;41.606;-87.602;2024-03-02T07:07:13;99800.13;;;7.96;63.36
49342;BME280;35210;41.606;-87.602;2024-03-02T07:09:41;99793.00;;;7.98;62.85
49342;BME280;35210;41.606;-87.602;2024-03-02T07:12:09;99790.53;;;7.80;64.24
49342;BME280;35210;41.606;-87.602;2024-03-02T07:14:39;99789.69;;;7.80;64.63
49342;BME280;35210;41.606;-87.602;2024-03-02T07:17:51;99779.84;;;7.83;64.61
49342;BME280;35210;41.606;-87.602;2024-03-02T07:20:19;99786.78;;;7.84;65.20
49342;BME280;35210;41.606;-87.602;2024-03-02T07:22:48;99774.94;;;7.77;65.36
49342;BME280;35210;41.606;-87.602;2024-03-02T07:25:16;99779.56;;;7.88;64.83
49342;BME280;35210;41.606;-87.602;2024-03-02T07:27:44;99784.81;;;7.88;65.53
49342;BME280;35210;41.606;-87.602;2024-03-02T07:30:16;99785.94;;;7.84;65.75
49342;BME280;35210;41.606;-87.602;2024-03-02T07:32:44;99782.66;;;7.80;66.22
49342;BME280;35210;41.606;-87.602;2024-03-02T07:35:12;99780.03;;;7.80;66.73
49342;BME280;35210;41.606;-87.602;2024-03-02T07:37:41;99776.34;;;7.83;67.03
49342;BME280;35210;41.606;-87.602;2024-03-02T07:40:11;99792.41;;;7.78;67.55
49342;BME280;35210;41.606;-87.602;2024-03-02T07:42:40;99789.22;;;7.73;68.53
49342;BME280;35210;41.606;-87.602;2024-03-02T07:45:09;99801.59;;;7.71;69.18
49342;BME280;35210;41.606;-87.602;2024-03-02T07:47:39;99795.66;;;7.68;69.73
49342;BME280;35210;41.606;-87.602;2024-03-02T07:50:07;99800.00;;;7.69;70.36
49342;BME280;35210;41.606;-87.602;2024-03-02T07:52:35;99795.22;;;7.75;70.37
49342;BME280;35210;41.606;-87.602;2024-03-02T07:55:04;99785.63;;;7.74;70.86
49342;BME280;35210;41.606;-87.602;2024-03-02T07:57:32;99784.63;;;7.77;70.85
49342;BME280;35210;41.606;-87.602;2024-03-02T08:00:00;99773.91;;;7.80;70.91
49342;BME280;35210;41.606;-87.602;2024-03-02T08:02:28;99786.78;;;7.84;71.02
49342;BME280;35210;41.606;-87.602;2024-03-02T08:04:58;99783.59;;;7.79;71.69
49342;BME280;35210;41.606;-87.602;2024-03-02T08:07:28;99786.22;;;7.79;71.58
49342;BME280;35210;41.606;-87.602;2024-03-02T08:09:56;99777.28;;;7.82;71.97
49342;BME280;35210;41.606;-87.602;2024-03-02T08:12:24;99786.13;;;7.81;72.72
49342;BME280;35210;41.606;-87.602;2024-03-02T08:14:52;99787.72;;;7.83;72.55
49342;BME280;35210;41.606;-87.602;2024-03-02T08:17:20;99772.88;;;7.82;72.88
49342;BME280;35210;41.606;-87.602;2024-03-02T08:19:48;99778.22;;;7.81;73.27
49342;BME280;35210;41.606;-87.602;2024-03-02T08:22:18;99776.44;;;7.81;73.35
49342;BME280;35210;41.606;-87.602;2024-03-02T08:24:46;99776.28;;;7.84;73.13
49342;BME280;35210;41.606;-87.602;2024-03-02T08:27:14;99779.75;;;7.85;73.06
49342;BME280;35210;41.606;-87.602;2024-03-02T08:29:42;99783.59;;;7.79;74.44
49342;BME280;35210;41.606;-87.602;2024-03-02T08:32:10;99779.84;;;7.83;74.26
49342;BME280;35210;41.606;-87.602;2024-03-02T08:34:39;99780.41;;;7.88;74.02
49342;BME280;35210;41.606;-87.602;2024-03-02T08:37:07;99776.09;;;7.87;74.19
49342;BME280;35210;41.606;-87.602;2024-03-02T08:39:36;99776.28;;;7.84;74.42
49342;BME280;35210;41.606;-87.602;2024-03-02T08:42:05;99772.88;;;7.82;75.01
49342;BME280;35210;41.606;-87.602;2024-03-02T08:44:33;99782.28;;;7.86;74.69
49342;BME280;35210;41.606;-87.602;2024-03-02T08:47:01;99772.50;;;7.88;74.77
49342;BME280;35210;41.606;-87.602;2024-03-02T08:49:29;99768.56;;;7.81;75.25
49342;BME280;35210;41.606;-87.602;2024-03-02T08:51:57;99772.50;;;7.88;75.22
49342;BME280;35210;41.606;-87.602;2024-03-02T08:54:25;99765.38;;;7.90;75.08
49342;BME280;35210;41.606;-87.602;2024-03-02T08:56:55;99768.75;;;7.93;75.09
49342;BME280;35210;41.606;-87.602;2024-03-02T08:59:23;99763.13;;;7.99;74.93
49342;BME280;35210;41.606;-87.602;2024-03-02T09:01:53;99768.38;;;7.99;74.74
49342;BME280;35210;41.606;-87.602;2024-03-02T09:04:21;99764.44;;;7.91;75.01
49342;BME280;35210;41.606;-87.602;2024-03-02T09:06:50;99766.13;;;7.93;75.56
49342;BME280;35210;41.606;-87.602;2024-03-02T09:09:18;99766.88;;;7.95;75.30
49342;BME280;35210;41.606;-87.602;2024-03-02T09:11:46;99768.75;;;7.93;76.02
49342;BME280;35210;41.606;-87.602;2024-03-02T09:14:16;99770.81;;;7.87;76.16
49342;BME280;35210;41.606;-87.602;2024-03-02T09:16:44;99767.44;;;7.85;76.56
49342;BME280;35210;41.606;-87.602;2024-03-02T09:19:12;99761.53;;;7.82;76.85
49342;BME280;35210;41.606;-87.602;2024-03-02T09:21:42;99763.66;;;7.75;77.26
49342;BME280;35210;41.606;-87.602;2024-03-02T09:24:10;99765.63;;;7.72;77.56
49342;BME280;35210;41.606;-87.602;2024-03-02T09:26:38;99766.66;;;7.69;77.73
49342;BME280;35210;41.606;-87.602;2024-03-02T09:29:06;99771.06;;;7.69;77.53
49342;BME280;35210;41.606;-87.602;2024-03-02T09:31:41;99774.53;;;7.55;78.49
49342;BME280;35210;41.606;-87.602;2024-03-02T09:34:09;99780.25;;;7.62;78.35
49342;BME280;35210;41.606;-87.602;2024-03-02T09:36:38;99789.09;;;7.61;78.04
49342;BME280;35210;41.606;-87.602;2024-03-02T09:39:08;99791.91;;;7.57;78.59
49342;BME280;35210;41.606;-87.602;2024-03-02T09:41:37;99792.91;;;7.55;78.98
49342;BME280;35210;41.606;-87.602;2024-03-02T09:44:08;99787.09;;;7.50;78.92
49342;BME280;35210;41.606;-87.602;2024-03-02T09:46:37;99791.97;;;7.42;79.63
49342;BME280;35210;41.606;-87.602;2024-03-02T09:49:08;99788.00;;;7.35;80.29
49342;BME280;35210;41.606;-87.602;2024-03-02T09:51:37;99791.75;;;7.31;81.20
49342;BME280;35210;41.606;-87.602;2024-03-02T09:54:07;99783.88;;;7.31;81.01
49342;BME280;35210;41.606;-87.602;2024-03-02T09:56:35;99780.56;;;7.27;81.02
49342;BME280;35210;41.606;-87.602;2024-03-02T09:59:06;99790.41;;;7.23;80.88
49342;BME280;35210;41.606;-87.602;2024-03-02T10:01:34;99786.00;;;7.24;81.07
49342;BME280;35210;41.606;-87.602;2024-03-02T10:04:03;99789.75;;;7.20;81.39
49342;BME280;35210;41.606;-87.602;2024-03-02T10:06:34;99795.84;;;7.20;81.25
49342;BME280;35210;41.606;-87.602;2024-03-02T10:09:03;99798.91;;;7.13;81.64
49342;BME280;35210;41.606;-87.602;2024-03-02T10:11:32;99794.84;;;7.07;82.23
49342;BME280;35210;41.606;-87.602;2024-03-02T10:14:07;99794.34;;;7.01;82.80
49342;BME280;35210;41.606;-87.602;2024-03-02T10:16:36;99798.06;;;6.97;83.57
49342;BME280;35210;41.606;-87.602;2024-03-02T10:19:23;99794.94;;;6.90;83.92
49342;BME280;35210;41.606;-87.602;2024-03-02T10:21:54;99792.16;;;6.93;84.14
49342;BME280;35210;41.606;-87.602;2024-03-02T10:24:24;99804.34;;;6.94;83.57
49342;BME280;35210;41.606;-87.602;2024-03-02T10:26:52;99811.63;;;6.89;84.50
49342;BME280;35210;41.606;-87.602;2024-03-02T10:29:22;99812.72;;;6.85;84.54
49342;BME280;35210;41.606;-87.602;2024-03-02T10:31:54;99816.72;;;6.92;84.58
49342;BME280;35210;41.606;-87.602;2024-03-02T10:34:22;99809.75;;;6.91;84.17
49342;BME280;35210;41.606;-87.602;2024-03-02T10:36:50;99815.00;;;6.91;83.96
49342;BME280;35210;41.606;-87.602;2024-03-02T10:39:21;99815.28;;;6.86;84.46
49342;BME280;35210;41.606;-87.602;2024-03-02T10:41:52;99820.59;;;6.85;84.68
49342;BME280;35210;41.606;-87.602;2024-03-02T10:44:22;99819.50;;;6.89;84.13
49342;BME280;35210;41.606;-87.602;2024-03-02T10:46:52;99819.94;;;6.81;84.23
49342;BME280;35210;41.606;-87.602;2024-03-02T10:49:23;99836.69;;;6.79;84.95
49342;BME280;35210;41.606;-87.602;2024-03-02T10:51:51;99829.59;;;6.81;84.83
49342;BME280;35210;41.606;-87.602;2024-03-02T10:54:21;99834.91;;;6.79;84.74
49342;BME280;35210;41.606;-87.602;2024-03-02T10:56:53;99838.56;;;6.77;84.80
49342;BME280;35210;41.606;-87.602;2024-03-02T10:59:27;99836.34;;;6.69;85.13
49342;BME280;35210;41.606;-87.602;2024-03-02T11:01:57;99842.13;;;6.76;84.70
49342;BME280;35210;41.606;-87.602;2024-03-02T11:04:27;99842.28;;;6.73;84.65
49342;BME280;35210;41.606;-87.602;2024-03-02T11:06:59;99844.13;;;6.71;84.49
49342;BME280;35210;41.606;-87.602;2024-03-02T11:09:32;99855.56;;;6.70;84.69
49342;BME280;35210;41.606;-87.602;2024-03-02T11:12:03;99838.13;;;6.69;85.16
49342;BME280;35210;41.606;-87.602;2024-03-02T11:14:35;99843.28;;;6.70;85.21
49342;BME280;35210;41.606;-87.602;2024-03-02T11:17:05;99845.06;;;6.70;84.78
49342;BME280;35210;41.606;-87.602;2024-03-02T11:19:34;99839.81;;;6.70;83.98
49342;BME280;35210;41.606;-87.602;2024-03-02T11:22:03;99833.00;;;6.67;84.13
49342;BME280;35210;41.606;-87.602;2024-03-02T11:24:34;99851.44;;;6.66;84.48
49342;BME280;35210;41.606;-87.602;2024-03-02T11:27:04;99866.16;;;6.52;85.38
49342;BME280;35210;41.606;-87.602;2024-03-02T11:29:45;99871.41;;;6.52;85.24
49342;BME280;35210;41.606;-87.602;2024-03-02T11:32:21;99874.03;;;6.52;85.30
49342;BME280;35210;41.606;-87.602;2024-03-02T11:34:50;99875.88;;;6.50;85.42
49342;BME280;35210;41.606;-87.602;2024-03-02T11:37:19;99878.66;;;6.47;85.91
49342;BME280;35210;41.606;-87.602;2024-03-02T11:39:50;99868.16;;;6.47;85.52
49342;BME280;35210;41.606;-87.602;2024-03-02T11:42:18;99862.16;;;6.45;85.67
49342;BME280;35210;41.606;-87.602;2024-03-02T11:44:47;99853.44;;;6.45;85.26
49342;BME280;35210;41.606;-87.602;2024-03-02T11:47:17;99859.53;;;6.45;85.12
49342;BME280;35210;41.606;-87.602;2024-03-02T11:49:46;99855.97;;;6.46;85.16
49342;BME280;35210;41.606;-87.602;2024-03-02T11:52:16;99860.13;;;6.50;84.71
49342;BME280;35210;41.606;-87.602;2024-03-02T11:54:46;99859.53;;;6.45;84.19
49342;BME280;35210;41.606;-87.602;2024-03-02T11:57:17;99866.81;;;6.40;84.19
49342;BME280;35210;41.606;-87.602;2024-03-02T11:59:46;99872.13;;;6.39;84.02
49342;BME280;35210;41.606;-87.602;2024-03-02T12:02:16;99875.06;;;6.33;84.27
49342;BME280;35210;41.606;-87.602;2024-03-02T12:04:45;99871.53;;;6.34;84.53
49342;BME280;35210;41.606;-87.602;2024-03-02T12:07:19;99875.91;;;6.33;84.38
49342;BME280;35210;41.606;-87.602;2024-03-02T12:09:48;99875.22;;;6.30;84.08
49342;BME280;35210;41.606;-87.602;2024-03-02T12:12:18;99881.66;;;6.24;83.51
49342;BME280;35210;41.606;-87.602;2024-03-02T12:14:52;99886.88;;;6.24;83.69
49342;BME280;35210;41.606;-87.602;2024-03-02T12:17:21;99881.03;;;6.19;83.66
49342;BME280;35210;41.606;-87.602;2024-03-02T12:19:49;99879.09;;;6.22;83.50
49342;BME280;35210;41.606;-87.602;2024-03-02T12:22:18;99889.50;;;6.24;83.01
49342;BME280;35210;41.606;-87.602;2024-03-02T12:24:46;99894.00;;;6.22;83.14
49342;BME280;35210;41.606;-87.602;2024-03-02T12:27:15;99889.66;;;6.21;82.42
49342;BME280;35210;41.606;-87.602;2024-03-02T12:29:46;99882.88;;;6.17;82.21
49342;BME280;35210;41.606;-87.602;2024-03-02T12:32:14;99886.53;;;6.14;81.99
49342;BME280;35210;41.606;-87.602;2024-03-02T12:34:46;99889.38;;;6.10;81.55
49342;BME280;35210;41.606;-87.602;2024-03-02T12:37:14;99887.00;;;6.05;82.03
49342;BME280;35210;41.606;-87.602;2024-03-02T12:39:45;99885.22;;;6.06;82.61
49342;BME280;35210;41.606;-87.602;2024-03-02T12:42:13;99886.06;;;6.06;82.80
49342;BME280;35210;41.606;-87.602;2024-03-02T12:44:41;99891.53;;;6.02;82.11
49342;BME280;35210;41.606;-87.602;2024-03-02T12:47:12;99884.59;;;6.01;82.10
49342;BME280;35210;41.606;-87.602;2024-03-02T12:49:40;99881.97;;;6.01;82.47
49342;BME280;35210;41.606;-87.602;2024-03-02T12:52:08;99885.53;;;6.00;83.01
49342;BME280;35210;41.606;-87.602;2024-03-02T12:54:39;99889.69;;;6.04;82.48
49342;BME280;35210;41.606;-87.602;2024-03-02T12:57:07;99888.06;;;6.01;83.47
49342;BME280;35210;41.606;-87.602;2024-03-02T12:59:35;99889.16;;;5.97;83.82
49342;BME280;35210;41.606;-87.602;2024-03-02T13:02:03;99893.53;;;5.97;84.02